Time;durP1;ratioP1;P1;durP2;ratioP2;P2;SDS_P1;SDS_P2;PMS_P1;PMS_P2;Temp;Humidity;BMP_temperature;BMP_pressure;BME280_temperature;BME280_humidity;BME280_pressure;Samples;Min_cycle;Max_cycle;Signal;HPM_P1;HPM_P2
2023/09/23 00:00:40;;;;;;;7.73;6.47;;;;;;;24.55;71.36;99438.13;5072267;28;20643;-59
2023/09/23 00:03:09;;;;;;;13.00;6.93;;;;;;;24.48;71.42;99440.38;5072468;28;20202;-60
2023/09/23 00:05:39;;;;;;;10.97;6.47;;;;;;;24.50;71.37;99441.69;5072381;28;20289;-60
2023/09/23 00:08:06;;;;;;;12.60;7.20;;;;;;;24.50;70.79;99438.97;5076322;28;20192;-59
2023/09/23 00:10:34;;;;;;;14.33;6.93;;;;;;;24.46;70.50;99431.72;5072173;28;20202;-59
2023/09/23 00:13:00;;;;;;;8.43;6.03;;;;;;;24.41;70.34;99432.56;5072282;28;20300;-59
2023/09/23 00:15:27;;;;;;;14.43;6.87;;;;;;;24.39;70.53;99436.66;5072166;28;20303;-59
2023/09/23 00:17:55;;;;;;;20.00;6.87;;;;;;;24.36;70.75;99432.63;5090325;28;20214;-59
2023/09/23 00:20:23;;;;;;;14.43;7.13;;;;;;;24.33;70.71;99438.63;5092585;28;20255;-60
2023/09/23 00:22:50;;;;;;;12.53;6.47;;;;;;;24.30;71.04;99435.69;5092223;28;20194;-59
2023/09/23 00:25:18;;;;;;;16.60;7.63;;;;;;;24.30;71.11;99441.09;5091910;28;20689;-59
2023/09/23 00:27:45;;;;;;;11.67;6.47;;;;;;;24.26;71.21;99442.78;5092080;28;20190;-59
2023/09/23 00:30:13;;;;;;;15.33;7.27;;;;;;;24.20;70.97;99435.75;5092430;28;20205;-59
2023/09/23 00:32:41;;;;;;;10.93;6.63;;;;;;;24.13;71.20;99444.22;5091991;28;20229;-60
2023/09/23 00:35:10;;;;;;;12.10;7.13;;;;;;;24.05;71.71;99439.41;5091423;28;20212;-60
2023/09/23 00:37:38;;;;;;;10.10;6.97;;;;;;;23.96;72.15;99433.00;5091967;28;20604;-59
2023/09/23 00:40:13;;;;;;;11.90;6.93;;;;;;;23.96;73.86;99433.00;5092265;28;20285;-59
2023/09/23 00:42:39;;;;;;;20.67;7.07;;;;;;;23.95;73.23;99434.09;5092354;28;20230;-59
2023/09/23 00:45:14;;;;;;;15.17;6.70;;;;;;;23.97;73.90;99439.25;5089889;28;20277;-59
2023/09/23 00:47:42;;;;;;;14.77;6.73;;;;;;;24.08;73.77;99440.75;5091867;28;20269;-60
2023/09/23 00:50:18;;;;;;;10.33;6.07;;;;;;;24.18;73.25;99446.09;5091870;28;20255;-59
2023/09/23 00:52:49;;;;;;;10.80;6.10;;;;;;;24.28;71.89;99441.38;5092062;28;20269;-59
2023/09/23 00:55:17;;;;;;;18.07;6.93;;;;;;;24.37;70.49;99434.22;5091357;28;20187;-59
2023/09/23 00:57:48;;;;;;;13.77;7.33;;;;;;;24.36;70.76;99438.06;5091752;28;20206;-59
2023/09/23 01:00:17;;;;;;;10.17;6.67;;;;;;;24.28;70.74;99432.44;5092115;28;20269;-59
2023/09/23 01:02:46;;;;;;;15.97;7.27;;;;;;;24.18;71.55;99429.81;5091951;28;20228;-60
2023/09/23 01:05:18;;;;;;;13.20;8.00;;;;;;;24.10;71.90;99441.28;5091439;28;20209;-59
2023/09/23 01:07:46;;;;;;;13.47;7.20;;;;;;;24.05;71.80;99433.19;5085172;28;20187;-60
2023/09/23 01:10:14;;;;;;;11.70;7.33;;;;;;;24.01;72.19;99446.50;5071358;28;20203;-60
2023/09/23 01:12:41;;;;;;;14.07;7.47;;;;;;;23.90;72.23;99438.72;5071380;28;20252;-59
2023/09/23 01:15:09;;;;;;;13.30;7.03;;;;;;;23.76;73.11;99437.72;5071348;28;20190;-60
2023/09/23 01:17:36;;;;;;;8.03;7.20;;;;;;;23.60;73.34;99438.94;5071393;28;20204;-60
2023/09/23 01:20:10;;;;;;;15.93;7.17;;;;;;;23.45;73.83;99437.16;5087248;28;20212;-60
2023/09/23 01:22:39;;;;;;;7.70;6.83;;;;;;;23.42;75.27;99437.69;5091443;28;20219;-59
2023/09/23 01:25:06;;;;;;;13.93;6.70;;;;;;;23.37;74.37;99418.75;5091806;28;20197;-59
2023/09/23 01:27:34;;;;;;;13.50;7.47;;;;;;;23.50;73.29;99428.97;5091292;28;20201;-59
2023/09/23 01:30:03;;;;;;;11.77;7.10;;;;;;;23.55;73.12;99442.50;5091386;28;20286;-60
2023/09/23 01:32:38;;;;;;;12.37;7.43;;;;;;;23.52;73.38;99443.03;5091550;28;20198;-60
2023/09/23 01:35:05;;;;;;;12.47;7.10;;;;;;;23.48;73.21;99452.03;5091999;28;20183;-60
2023/09/23 01:37:32;;;;;;;23.97;7.87;;;;;;;23.40;73.51;99439.88;5090882;28;20212;-60
2023/09/23 01:40:00;;;;;;;10.23;7.00;;;;;;;23.33;73.75;99444.81;5091269;28;20733;-60
2023/09/23 01:42:30;;;;;;;14.17;7.27;;;;;;;23.31;73.78;99438.00;5091019;28;20289;-60
2023/09/23 01:44:57;;;;;;;18.00;7.33;;;;;;;23.29;74.03;99449.16;5091918;28;20204;-60
2023/09/23 01:47:24;;;;;;;13.20;7.10;;;;;;;23.18;74.23;99439.41;5091200;28;20239;-60
2023/09/23 01:49:50;;;;;;;16.07;6.63;;;;;;;23.25;74.68;99453.53;5079371;28;20194;-59
2023/09/23 01:52:17;;;;;;;14.40;8.00;;;;;;;23.26;74.23;99455.13;5071091;28;20747;-60
2023/09/23 01:54:45;;;;;;;20.60;7.63;;;;;;;23.21;74.69;99446.22;5071581;28;20268;-59
2023/09/23 01:57:16;;;;;;;21.07;7.30;;;;;;;23.19;75.43;99460.00;5075116;28;20313;-59
2023/09/23 01:59:43;;;;;;;11.13;6.47;;;;;;;23.21;75.63;99463.31;5075015;28;20186;-59
2023/09/23 02:02:10;;;;;;;13.63;6.87;;;;;;;23.24;75.61;99451.88;5087815;28;20732;-60
2023/09/23 02:04:39;;;;;;;12.83;7.00;;;;;;;23.38;74.33;99457.50;5094709;28;20803;-59
2023/09/23 02:07:06;;;;;;;9.43;6.80;;;;;;;23.44;73.85;99451.78;5094376;28;20698;-59
2023/09/23 02:09:34;;;;;;;15.83;7.07;;;;;;;23.42;73.68;99453.97;5074463;28;20198;-59
2023/09/23 02:12:01;;;;;;;14.97;7.93;;;;;;;23.37;73.81;99451.28;5074757;28;20201;-59
2023/09/23 02:14:29;;;;;;;17.30;7.20;;;;;;;23.33;73.95;99450.22;5088096;28;20274;-59
2023/09/23 02:16:57;;;;;;;12.87;6.77;;;;;;;23.38;75.40;99452.91;5094887;28;20231;-59
2023/09/23 02:19:24;;;;;;;9.07;6.33;;;;;;;23.46;73.91;99449.59;5094755;28;20193;-60
2023/09/23 02:21:51;;;;;;;12.73;7.13;;;;;;;23.52;73.43;99451.19;5088790;28;20197;-60
2023/09/23 02:24:18;;;;;;;9.40;6.60;;;;;;;23.51;73.58;99444.16;5074215;28;20197;-60
2023/09/23 02:26:46;;;;;;;7.20;6.30;;;;;;;23.59;73.93;99448.16;5074246;28;20698;-59
2023/09/23 02:29:14;;;;;;;9.40;6.60;;;;;;;23.65;73.46;99450.53;5073764;28;20198;-60
2023/09/23 02:31:46;;;;;;;19.37;7.57;;;;;;;23.71;72.22;99451.31;5092012;28;20285;-59
2023/09/23 02:34:16;;;;;;;16.73;7.40;;;;;;;23.65;72.29;99450.53;5094740;28;20197;-59
2023/09/23 02:36:43;;;;;;;10.77;6.27;;;;;;;23.55;72.58;99456.03;5094141;28;20268;-59
2023/09/23 02:39:15;;;;;;;13.53;7.50;;;;;;;23.41;74.33;99455.06;5094250;28;20284;-59
2023/09/23 02:41:42;;;;;;;8.87;5.90;;;;;;;23.30;74.10;99456.19;5076306;28;20225;-60
2023/09/23 02:44:09;;;;;;;10.37;6.50;;;;;;;23.24;74.83;99451.09;5074333;28;20202;-60
2023/09/23 02:46:37;;;;;;;15.80;7.47;;;;;;;23.19;75.45;99449.16;5074179;28;20196;-59
2023/09/23 02:49:06;;;;;;;12.73;6.70;;;;;;;23.20;76.01;99453.53;5073843;28;20258;-59
2023/09/23 02:51:32;;;;;;;12.90;7.13;;;;;;;23.25;75.79;99452.69;5074115;28;20216;-60
2023/09/23 02:53:59;;;;;;;13.50;6.93;;;;;;;23.31;75.39;99459.69;5091897;28;20193;-60
2023/09/23 02:56:27;;;;;;;9.77;6.47;;;;;;;23.38;74.53;99463.75;5094227;28;20216;-60
2023/09/23 02:58:56;;;;;;;12.77;6.33;;;;;;;23.41;74.25;99460.50;5093927;28;20258;-59
2023/09/23 03:01:23;;;;;;;9.83;6.33;;;;;;;23.46;73.70;99465.06;5094186;28;20219;-59
2023/09/23 03:03:50;;;;;;;9.07;6.47;;;;;;;23.45;73.57;99458.84;5090723;28;20193;-59
2023/09/23 03:06:18;;;;;;;10.93;6.67;;;;;;;23.46;73.63;99471.28;5093320;28;20245;-60
2023/09/23 03:08:47;;;;;;;10.33;6.40;;;;;;;23.46;73.71;99468.59;5079537;28;20198;-60
2023/09/23 03:11:18;;;;;;;9.73;6.33;;;;;;;23.47;74.07;99466.66;5073711;28;20205;-60
2023/09/23 03:13:44;;;;;;;13.67;6.90;;;;;;;23.48;73.60;99469.09;5090697;28;20265;-60
2023/09/23 03:16:14;;;;;;;21.13;6.83;;;;;;;23.46;73.71;99471.28;5093809;28;20273;-59
2023/09/23 03:18:54;;;;;;;14.53;7.47;;;;;;;23.47;73.97;99469.38;5087510;28;20228;-59
2023/09/23 03:21:22;;;;;;;12.33;6.00;;;;;;;23.43;74.18;99476.44;5085794;28;20185;-59
2023/09/23 03:23:49;;;;;;;9.90;6.50;;;;;;;23.44;74.14;99481.59;5080314;28;20197;-59
2023/09/23 03:26:20;;;;;;;16.70;7.23;;;;;;;23.43;73.94;99482.69;5084079;28;20248;-59
2023/09/23 03:28:47;;;;;;;10.17;6.97;;;;;;;23.39;73.80;99481.63;5083144;28;20184;-59
2023/09/23 03:31:14;;;;;;;17.60;7.67;;;;;;;23.32;73.92;99481.13;5081116;28;20280;-60
2023/09/23 03:33:42;;;;;;;13.67;7.53;;;;;;;23.23;74.26;99488.22;5081626;28;20197;-60
2023/09/23 03:36:15;;;;;;;14.27;6.67;;;;;;;23.13;75.00;99488.25;5082335;28;20217;-59
2023/09/23 03:38:43;;;;;;;11.50;7.23;;;;;;;23.09;75.73;99491.75;5072358;28;20183;-60
2023/09/23 03:41:11;;;;;;;13.70;6.60;;;;;;;23.11;76.15;99490.41;5072599;28;20219;-60
2023/09/23 03:43:39;;;;;;;9.10;6.00;;;;;;;23.17;75.61;99489.31;5071722;28;20189;-59
2023/09/23 03:46:14;;;;;;;11.67;6.30;;;;;;;23.25;75.90;99502.31;5072104;28;20276;-60
2023/09/23 03:48:41;;;;;;;16.37;7.30;;;;;;;23.38;75.39;99507.13;5072506;28;20181;-60
2023/09/23 03:51:09;;;;;;;10.93;7.63;;;;;;;23.45;73.81;99506.81;5072311;28;20266;-60
2023/09/23 03:53:36;;;;;;;11.07;9.13;;;;;;;23.42;73.79;99508.19;5071765;28;20196;-59
2023/09/23 03:56:05;;;;;;;18.07;9.00;;;;;;;23.39;74.04;99513.34;5075186;28;20576;-59
2023/09/23 03:58:32;;;;;;;17.50;9.27;;;;;;;23.38;73.80;99504.41;5082553;28;20197;-59
2023/09/23 04:01:05;;;;;;;14.13;7.77;;;;;;;23.31;73.94;99501.19;5083717;28;20197;-60
2023/09/23 04:03:34;;;;;;;15.23;8.40;;;;;;;23.26;73.99;99503.94;5082617;28;20579;-59
2023/09/23 04:06:01;;;;;;;23.77;8.80;;;;;;;23.19;74.05;99500.66;5081229;28;20185;-59
2023/09/23 04:08:29;;;;;;;13.63;8.37;;;;;;;23.13;74.63;99509.91;5082606;28;20272;-60
2023/09/23 04:10:56;;;;;;;13.63;8.13;;;;;;;23.15;74.95;99507.72;5081146;28;20199;-59
2023/09/23 04:13:25;;;;;;;15.60;7.83;;;;;;;23.20;74.81;99509.66;5080452;28;20271;-60
2023/09/23 04:15:53;;;;;;;17.77;7.07;;;;;;;23.26;75.40;99503.09;5081301;28;20193;-60
2023/09/23 04:18:20;;;;;;;16.27;7.77;;;;;;;23.36;74.06;99512.00;5082821;28;20208;-59
2023/09/23 04:20:49;;;;;;;14.43;6.93;;;;;;;23.44;74.34;99511.44;5081352;28;20200;-60
2023/09/23 04:23:16;;;;;;;19.93;7.83;;;;;;;23.34;74.50;99516.91;5079742;28;20676;-60
2023/09/23 04:25:43;;;;;;;17.17;8.07;;;;;;;23.32;74.59;99513.66;5075303;28;20565;-60
2023/09/23 04:28:10;;;;;;;17.10;7.50;;;;;;;23.38;74.34;99517.16;5072307;28;20288;-59
2023/09/23 04:30:38;;;;;;;12.37;6.00;;;;;;;23.40;74.10;99521.22;5072070;28;20250;-59
2023/09/23 04:33:05;;;;;;;13.90;8.17;;;;;;;23.51;73.93;99517.38;5072192;28;20190;-60
2023/09/23 04:35:34;;;;;;;12.27;6.97;;;;;;;23.58;73.23;99517.88;5071630;28;20197;-60
2023/09/23 04:38:01;;;;;;;14.37;7.00;;;;;;;23.68;73.91;99525.16;5071634;28;20316;-60
2023/09/23 04:40:28;;;;;;;14.60;7.07;;;;;;;23.70;73.63;99526.50;5071471;28;20628;-59
2023/09/23 04:42:54;;;;;;;11.53;7.57;;;;;;;23.79;73.06;99537.53;5081908;28;20265;-59
2023/09/23 04:45:21;;;;;;;15.30;7.03;;;;;;;23.92;73.31;99534.22;5091683;28;20193;-60
2023/09/23 04:47:51;;;;;;;14.50;8.10;;;;;;;24.09;72.59;99537.41;5091759;28;20265;-59
2023/09/23 04:50:18;;;;;;;18.00;7.33;;;;;;;24.15;71.58;99537.06;5091478;28;20289;-59
2023/09/23 04:52:46;;;;;;;13.00;7.53;;;;;;;24.16;71.15;99535.97;5082609;28;20252;-59
2023/09/23 04:55:13;;;;;;;14.33;7.90;;;;;;;24.26;70.52;99541.31;5071311;28;20229;-59
2023/09/23 04:57:40;;;;;;;17.50;7.30;;;;;;;24.44;71.20;99539.81;5071289;28;20219;-59
2023/09/23 05:00:10;;;;;;;12.13;6.23;;;;;;;24.83;70.38;99535.94;5071768;28;20278;-65
2023/09/23 05:02:41;;;;;;;12.20;6.70;;;;;;;25.32;68.15;99540.31;5071353;28;20218;-65
2023/09/23 05:05:11;;;;;;;16.43;6.70;;;;;;;25.80;66.23;99555.47;5081962;28;20194;-63
2023/09/23 05:07:38;;;;;;;12.10;6.30;;;;;;;26.23;63.62;99557.84;5090761;28;20548;-63
2023/09/23 05:10:07;;;;;;;14.37;7.00;;;;;;;26.56;62.50;99559.47;5090123;28;20327;-62
2023/09/23 05:12:34;;;;;;;10.63;6.20;;;;;;;26.74;61.68;99560.56;5076553;28;20205;-62
2023/09/23 05:15:01;;;;;;;15.57;6.77;;;;;;;26.93;59.88;99570.28;5069373;28;20200;-62
2023/09/23 05:17:28;;;;;;;24.23;6.67;;;;;;;27.04;61.56;99565.44;5069630;28;20238;-62
2023/09/23 05:19:55;;;;;;;17.93;7.40;;;;;;;27.41;60.55;99573.47;5068869;28;20681;-65
2023/09/23 05:22:23;;;;;;;13.17;6.00;;;;;;;27.68;57.70;99581.66;5075897;28;20696;-66
2023/09/23 05:24:56;;;;;;;14.33;6.33;;;;;;;27.57;58.21;99591.16;5089752;28;20195;-65
2023/09/23 05:27:24;;;;;;;12.23;6.23;;;;;;;27.70;56.77;99593.06;5091100;28;20669;-66
2023/09/23 05:29:51;;;;;;;15.07;6.43;;;;;;;27.56;56.73;99598.53;5091500;28;20245;-65
2023/09/23 05:32:18;;;;;;;8.67;5.43;;;;;;;27.64;57.46;99597.03;5095443;28;20675;-64
2023/09/23 05:34:45;;;;;;;10.63;5.83;;;;;;;27.69;57.30;99599.66;5093311;28;20225;-74
2023/09/23 05:37:12;;;;;;;11.73;5.90;;;;;;;27.70;55.77;99604.81;5090703;28;20211;-74
2023/09/23 05:39:45;;;;;;;12.50;6.23;;;;;;;27.17;57.60;99594.66;5077484;28;20548;-74
2023/09/23 05:42:13;;;;;;;13.50;6.23;;;;;;;26.81;58.43;99593.69;5083611;28;20277;-74
2023/09/23 05:44:40;;;;;;;16.50;6.90;;;;;;;26.89;58.28;99596.53;5085822;28;20188;-73
2023/09/23 05:47:08;;;;;;;13.63;6.03;;;;;;;27.21;58.59;99598.44;5082259;28;20192;-73
2023/09/23 05:49:35;;;;;;;8.13;5.43;;;;;;;27.35;57.01;99596.50;5083404;28;20298;-73
2023/09/23 05:52:03;;;;;;;7.57;5.87;;;;;;;27.28;56.47;99604.31;5085216;28;20215;-72
2023/09/23 05:54:29;;;;;;;11.47;6.20;;;;;;;27.26;56.53;99601.06;5082116;28;20706;-73
2023/09/23 05:56:57;;;;;;;12.83;5.50;;;;;;;27.54;56.73;99597.22;5074708;28;20224;-73
2023/09/23 05:59:24;;;;;;;21.80;6.80;;;;;;;28.11;55.06;99602.03;5074169;28;20214;-73
2023/09/23 06:01:50;;;;;;;11.97;5.40;;;;;;;28.66;52.82;99603.44;5073899;28;20196;-73
2023/09/23 06:04:17;;;;;;;15.97;5.67;;;;;;;28.91;50.41;99613.78;5083114;28;20804;-74
2023/09/23 06:06:44;;;;;;;12.40;5.40;;;;;;;29.20;49.99;99614.13;5094929;28;20380;-73
2023/09/23 06:09:11;;;;;;;14.00;6.00;;;;;;;29.46;48.93;99623.22;5077140;28;20192;-73
2023/09/23 06:11:38;;;;;;;9.37;5.93;;;;;;;29.44;48.76;99617.28;5074382;28;20261;-73
2023/09/23 06:14:08;;;;;;;11.40;5.27;;;;;;;29.40;48.48;99605.34;5081753;28;20274;-68
2023/09/23 06:16:35;;;;;;;12.20;5.93;;;;;;;29.22;49.33;99606.38;5094607;28;20203;-72
2023/09/23 06:19:01;;;;;;;19.57;5.20;;;;;;;29.42;50.04;99600.34;5091069;28;20644;-72
2023/09/23 06:21:29;;;;;;;11.73;5.27;;;;;;;29.79;48.34;99604.50;5093002;28;20195;-66
2023/09/23 06:23:55;;;;;;;17.63;5.27;;;;;;;30.22;46.78;99611.72;5091898;28;20192;-66
2023/09/23 06:26:22;;;;;;;20.97;6.03;;;;;;;30.58;45.96;99614.91;5090225;28;20253;-67
2023/09/23 06:28:49;;;;;;;9.70;5.03;;;;;;;30.91;45.00;99605.03;5089415;28;20199;-67
2023/09/23 06:31:17;;;;;;;9.40;5.20;;;;;;;31.18;43.89;99603.84;5088880;28;20192;-67
2023/09/23 06:33:43;;;;;;;13.77;6.43;;;;;;;31.25;43.16;99582.22;5078145;28;20659;-64
2023/09/23 06:36:10;;;;;;;15.00;5.87;;;;;;;31.34;42.52;99597.50;5076964;28;20731;-67
2023/09/23 06:38:37;;;;;;;19.90;5.80;;;;;;;31.34;42.38;99608.50;5074484;28;20514;-63
2023/09/23 06:41:03;;;;;;;9.00;5.20;;;;;;;31.27;42.47;99602.69;5077501;28;20295;-67
2023/09/23 06:43:30;;;;;;;13.63;5.63;;;;;;;31.17;43.23;99607.72;5075416;28;20667;-68
2023/09/23 06:45:57;;;;;;;10.33;5.30;;;;;;;30.92;44.43;99612.16;5079876;28;20798;-67
2023/09/23 06:48:26;;;;;;;15.13;5.60;;;;;;;31.15;43.66;99610.78;5079283;28;20667;-70
2023/09/23 06:50:57;;;;;;;10.23;5.30;;;;;;;31.47;42.28;99612.97;5055621;28;20214;-66
2023/09/23 06:53:24;;;;;;;14.13;6.00;;;;;;;31.45;42.43;99615.25;5073067;28;20838;-66
2023/09/23 06:55:51;;;;;;;10.83;5.50;;;;;;;31.43;42.70;99612.00;5089488;28;20582;-65
2023/09/23 06:58:18;;;;;;;10.17;6.17;;;;;;;31.72;42.25;99620.25;5074293;28;20922;-66
2023/09/23 07:00:44;;;;;;;12.03;5.17;;;;;;;31.91;41.47;99611.59;5081894;28;20664;-66
2023/09/23 07:03:11;;;;;;;9.27;5.20;;;;;;;32.03;41.12;99623.50;5069179;28;20196;-69
2023/09/23 07:05:40;;;;;;;17.13;5.33;;;;;;;32.01;40.65;99627.72;5066230;28;20195;-71
2023/09/23 07:08:07;;;;;;;13.60;4.93;;;;;;;32.20;40.32;99628.88;5077773;28;20287;-65
2023/09/23 07:10:35;;;;;;;11.60;5.17;;;;;;;32.49;39.26;99628.84;5083375;28;20617;-67
2023/09/23 07:13:03;;;;;;;9.37;5.30;;;;;;;32.55;39.32;99638.47;5079560;28;20278;-65
2023/09/23 07:15:30;;;;;;;10.53;5.77;;;;;;;32.52;38.92;99639.19;5086014;28;20264;-66
2023/09/23 07:17:58;;;;;;;9.07;5.40;;;;;;;32.61;38.97;99642.66;5085762;28;20219;-66
2023/09/23 07:20:24;;;;;;;11.10;5.70;;;;;;;32.66;38.56;99641.66;5085358;28;20278;-66
2023/09/23 07:22:52;;;;;;;17.23;5.63;;;;;;;32.68;38.37;99644.84;5085922;28;20223;-65
2023/09/23 07:25:19;;;;;;;18.77;5.57;;;;;;;32.83;38.05;99634.03;5080342;28;20264;-67
2023/09/23 07:27:46;;;;;;;13.20;5.80;;;;;;;33.08;37.84;99632.97;5078339;28;20211;-68
2023/09/23 07:30:14;;;;;;;15.43;5.55;;;;;;;33.34;36.81;99638.22;5086365;28;20223;-67
2023/09/23 07:32:41;;;;;;;9.23;4.87;;;;;;;33.53;36.75;99629.41;5077015;28;20200;-68
2023/09/23 07:35:08;;;;;;;14.32;5.85;;;;;;;33.52;35.24;99633.31;5086199;28;20251;-69
2023/09/23 07:37:35;;;;;;;13.65;5.85;;;;;;;33.46;35.55;99645.69;5084019;28;20288;-68
2023/09/23 07:40:06;;;;;;;14.50;6.28;;;;;;;33.43;36.38;99636.16;5079694;28;21114;-69
2023/09/23 07:42:33;;;;;;;12.20;5.78;;;;;;;33.46;36.16;99640.16;5083813;28;20310;-67
2023/09/23 07:45:00;;;;;;;9.32;5.90;;;;;;;33.42;36.23;99639.25;5084667;28;20286;-67
2023/09/23 07:47:27;;;;;;;15.77;5.38;;;;;;;33.45;36.81;99633.06;5085956;28;20278;-71
2023/09/23 07:49:54;;;;;;;9.13;5.60;;;;;;;33.52;36.49;99627.78;5084958;28;20285;-70
2023/09/23 07:52:20;;;;;;;14.10;5.45;;;;;;;33.56;35.82;99628.72;5085017;28;21619;-67
2023/09/23 07:54:47;;;;;;;9.48;5.57;;;;;;;33.60;36.16;99624.13;5084358;28;20203;-65
2023/09/23 07:57:15;;;;;;;15.20;5.28;;;;;;;33.64;36.11;99614.03;5085755;28;20260;-66
2023/09/23 07:59:43;;;;;;;12.95;5.20;;;;;;;33.85;36.00;99620.25;5083471;28;20195;-69
2023/09/23 08:02:09;;;;;;;10.68;5.40;;;;;;;34.02;35.79;99614.47;5083900;28;20356;-68
2023/09/23 08:04:36;;;;;;;20.52;6.03;;;;;;;34.19;34.83;99614.19;5081584;28;20199;-66
2023/09/23 08:07:03;;;;;;;16.98;5.45;;;;;;;34.31;34.89;99616.94;5083199;28;20196;-67
2023/09/23 08:09:29;;;;;;;13.13;5.60;;;;;;;34.33;34.20;99620.97;5084733;28;20199;-65
2023/09/23 08:11:56;;;;;;;14.55;5.88;;;;;;;34.31;34.80;99594.88;5084420;28;20195;-65
2023/09/23 08:14:25;;;;;;;8.68;5.30;;;;;;;34.48;33.69;99605.63;5084964;28;20759;-68
2023/09/23 08:16:52;;;;;;;12.20;5.22;;;;;;;34.68;33.62;99599.91;5082474;28;20196;-66
2023/09/23 08:19:19;;;;;;;16.42;6.10;;;;;;;34.80;33.59;99601.84;5083725;28;20272;-70
2023/09/23 08:21:46;;;;;;;15.13;5.15;;;;;;;34.92;34.12;99602.59;5084464;28;20262;-66
2023/09/23 08:24:13;;;;;;;15.40;5.47;;;;;;;34.80;33.30;99601.84;5085640;28;20282;-71
2023/09/23 08:26:39;;;;;;;12.20;4.70;;;;;;;34.71;32.58;99598.41;5084027;28;20188;-71
2023/09/23 08:29:06;;;;;;;7.28;5.03;;;;;;;34.48;33.98;99594.59;5078362;28;20199;-69
2023/09/23 08:31:34;;;;;;;10.15;5.13;;;;;;;34.30;33.44;99598.78;5081758;28;20253;-67
2023/09/23 08:34:03;;;;;;;16.73;5.32;;;;;;;34.19;33.85;99586.63;5079850;28;20256;-67
2023/09/23 08:36:31;;;;;;;14.75;5.10;;;;;;;34.11;33.64;99590.31;5082495;28;20191;-66
2023/09/23 08:38:58;;;;;;;11.82;5.03;;;;;;;34.11;33.16;99590.31;5078027;28;20218;-66
2023/09/23 08:41:26;;;;;;;13.90;4.72;;;;;;;34.13;33.38;99582.50;5075938;28;20308;-68
2023/09/23 08:43:54;;;;;;;12.80;5.15;;;;;;;34.02;33.22;99581.38;5076141;28;20249;-66
2023/09/23 08:46:24;;;;;;;14.48;5.07;;;;;;;33.98;33.16;99578.53;5077537;28;20662;-67
2023/09/23 08:48:52;;;;;;;15.52;5.50;;;;;;;33.81;33.75;99575.19;5076522;28;20751;-66
2023/09/23 08:51:21;;;;;;;13.45;5.32;;;;;;;33.89;33.55;99566.00;5075477;28;20253;-66
2023/09/23 08:53:52;;;;;;;13.20;5.00;;;;;;;34.00;33.40;99572.66;5071895;28;20203;-65
2023/09/23 08:56:19;;;;;;;16.02;5.50;;;;;;;34.17;33.68;99575.13;5079165;28;20214;-64
2023/09/23 08:58:48;;;;;;;16.88;5.85;;;;;;;34.33;33.23;99570.53;5071896;28;20317;-64
2023/09/23 09:01:14;;;;;;;15.10;4.97;;;;;;;34.39;33.21;99560.81;5071936;28;20192;-64
2023/09/23 09:03:41;;;;;;;15.10;5.40;;;;;;;34.48;32.67;99559.53;5072927;28;20253;-64
2023/09/23 09:06:18;;;;;;;16.02;5.75;;;;;;;34.58;32.90;99560.97;5075212;28;20275;-67
2023/09/23 09:08:45;;;;;;;8.40;5.25;;;;;;;34.72;31.58;99558.59;5076430;28;20608;-66
2023/09/23 09:11:12;;;;;;;11.98;5.07;;;;;;;34.77;31.78;99547.28;5075810;28;20192;-65
2023/09/23 09:13:39;;;;;;;15.05;5.70;;;;;;;34.67;31.28;99550.56;5075878;28;20210;-64
2023/09/23 09:16:06;;;;;;;15.80;5.68;;;;;;;34.75;31.49;99547.66;5072436;28;20761;-64
2023/09/23 09:18:33;;;;;;;12.10;5.97;;;;;;;34.83;30.95;99551.44;5062848;28;20336;-64
2023/09/23 09:20:59;;;;;;;13.50;5.50;;;;;;;34.80;31.11;99541.09;5068374;28;20227;-65
2023/09/23 09:23:32;;;;;;;12.20;4.95;;;;;;;34.84;30.98;99540.03;5072580;28;20237;-64
2023/09/23 09:25:59;;;;;;;16.83;5.35;;;;;;;35.02;31.17;99543.28;5072437;28;20289;-66
2023/09/23 09:28:26;;;;;;;19.88;6.40;;;;;;;35.18;30.63;99535.75;5076289;28;20573;-65
2023/09/23 09:30:57;;;;;;;16.05;6.30;;;;;;;35.33;30.67;99538.56;5076177;28;20591;-66
2023/09/23 09:33:26;;;;;;;14.13;5.55;;;;;;;35.50;31.07;99532.66;5076649;28;20323;-66
2023/09/23 09:35:54;;;;;;;15.95;5.85;;;;;;;35.27;30.92;99530.88;5072765;28;20238;-64
2023/09/23 09:38:22;;;;;;;18.02;6.28;;;;;;;35.02;31.31;99529.47;5075298;28;20711;-65
2023/09/23 09:40:51;;;;;;;14.93;5.68;;;;;;;34.75;32.31;99527.53;5080505;28;20780;-64
2023/09/23 09:43:20;;;;;;;12.88;5.22;;;;;;;34.88;31.77;99531.84;5075124;28;20256;-65
2023/09/23 09:45:48;;;;;;;12.00;5.20;;;;;;;34.89;31.94;99531.50;5081626;28;20651;-64
2023/09/23 09:48:17;;;;;;;15.25;5.40;;;;;;;35.07;31.50;99529.97;5087672;28;20255;-64
2023/09/23 09:50:45;;;;;;;11.43;5.53;;;;;;;35.26;31.88;99527.28;5082613;28;20793;-65
2023/09/23 09:53:13;;;;;;;14.70;5.97;;;;;;;35.47;31.30;99521.50;5069928;28;20198;-64
2023/09/23 09:55:40;;;;;;;14.00;6.47;;;;;;;35.15;32.12;99517.94;5079621;28;20279;-64
2023/09/23 09:58:08;;;;;;;19.08;6.15;;;;;;;35.21;32.44;99512.94;5079033;28;20191;-66
2023/09/23 10:00:42;;;;;;;12.73;5.97;;;;;;;35.36;31.71;99506.66;5087579;28;20187;-65
2023/09/23 10:03:12;;;;;;;18.42;6.07;;;;;;;35.52;31.44;99499.91;5086149;28;20195;-64
2023/09/23 10:05:43;;;;;;;18.77;5.68;;;;;;;35.32;32.10;99497.47;5082957;28;20195;-65
2023/09/23 10:08:12;;;;;;;20.02;5.68;;;;;;;35.38;31.57;99501.53;5079261;28;20195;-64
2023/09/23 10:10:47;;;;;;;22.83;6.07;;;;;;;35.27;31.93;99489.44;5085122;28;20554;-66
2023/09/23 10:13:16;;;;;;;18.33;6.20;;;;;;;35.35;32.08;99496.75;5069850;28;20647;-64
2023/09/23 10:15:43;;;;;;;15.18;6.45;;;;;;;35.42;32.08;99488.59;5075856;28;20224;-65
2023/09/23 10:18:13;;;;;;;12.13;5.90;;;;;;;35.49;31.60;99484.06;5076698;28;20192;-65
2023/09/23 10:20:48;;;;;;;15.18;6.40;;;;;;;35.40;31.93;99483.44;5078228;28;20908;-70
2023/09/23 10:23:16;;;;;;;16.95;5.93;;;;;;;35.38;32.57;99473.91;5078631;28;20822;-73
2023/09/23 10:25:43;;;;;;;17.02;6.30;;;;;;;35.37;31.96;99461.25;5076730;28;20286;-72
2023/09/23 10:28:22;;;;;;;13.13;5.80;;;;;;;35.37;32.25;99461.25;5078360;28;20195;-74
2023/09/23 10:30:59;;;;;;;14.52;5.63;;;;;;;35.41;31.98;99451.91;5077175;28;20644;-70
2023/09/23 10:33:27;;;;;;;9.25;5.88;;;;;;;35.28;32.19;99452.38;5075861;28;20671;-69
2023/09/23 10:35:56;;;;;;;15.57;5.82;;;;;;;35.29;32.69;99451.22;5078586;28;20206;-71
2023/09/23 10:38:23;;;;;;;17.40;5.10;;;;;;;35.12;32.61;99443.28;5080279;28;20385;-70
2023/09/23 10:40:52;;;;;;;13.20;5.55;;;;;;;35.17;32.32;99441.03;5083059;28;20269;-69
2023/09/23 10:43:21;;;;;;;16.25;6.20;;;;;;;35.14;33.01;99435.41;5083813;28;20215;-69
2023/09/23 10:45:48;;;;;;;21.63;6.05;;;;;;;34.97;33.70;99433.06;5089933;28;20195;-78
2023/09/23 10:48:16;;;;;;;14.07;6.18;;;;;;;34.88;33.44;99432.44;5079548;28;20260;-70
2023/09/23 10:50:43;;;;;;;11.77;5.75;;;;;;;34.88;32.92;99435.19;5074445;28;20284;-72
2023/09/23 10:53:10;;;;;;;13.35;6.20;;;;;;;34.97;33.39;99433.06;5073750;28;20253;-72
2023/09/23 10:55:37;;;;;;;16.48;5.97;;;;;;;35.02;33.12;99428.06;5075067;28;20195;-69
2023/09/23 10:58:05;;;;;;;13.15;6.00;;;;;;;35.02;33.41;99421.75;5071441;28;20264;-72
2023/09/23 11:00:34;;;;;;;15.20;5.40;;;;;;;35.04;33.27;99402.84;5080175;28;20291;-72
2023/09/23 11:03:07;;;;;;;13.57;5.68;;;;;;;35.14;32.64;99413.31;5080036;28;20275;-68
2023/09/23 11:05:37;;;;;;;13.20;5.70;;;;;;;35.04;33.06;99408.38;5068851;28;20271;-69
2023/09/23 11:08:05;;;;;;;11.95;5.30;;;;;;;35.16;32.50;99411.00;5077781;28;20723;-74
2023/09/23 11:10:32;;;;;;;14.80;6.20;;;;;;;35.26;32.71;99402.97;5079832;28;20261;-73
2023/09/23 11:12:59;;;;;;;11.27;5.72;;;;;;;35.27;32.69;99412.06;5074945;28;20199;-72
2023/09/23 11:15:26;;;;;;;9.45;5.10;;;;;;;35.36;32.43;99404.41;5077734;28;20274;-70
2023/09/23 11:17:56;;;;;;;9.13;4.80;;;;;;;35.52;32.22;99396.84;5078223;28;20224;-71
2023/09/23 11:20:30;;;;;;;14.88;5.07;;;;;;;35.49;31.87;99394.81;5074336;28;20225;-72
2023/09/23 11:23:03;;;;;;;13.70;5.20;;;;;;;35.41;32.40;99390.28;5072722;28;20196;-69
2023/09/23 11:25:30;;;;;;;13.70;5.40;;;;;;;35.33;33.03;99371.97;5080862;28;20665;-65
2023/09/23 11:28:00;;;;;;;14.32;5.03;;;;;;;35.34;32.73;99370.78;5076318;28;20195;-65
2023/09/23 11:30:27;;;;;;;17.08;5.55;;;;;;;35.39;32.75;99378.81;5070908;28;20221;-66